Time;durP1;ratioP1;P1;durP2;ratioP2;P2;SDS_P1;SDS_P2;PMS_P1;PMS_P2;Temp;Humidity;BMP_temperature;BMP_pressure;BME280_temperature;BME280_humidity;BME280_pressure;Samples;Min_cycle;Max_cycle;Signal;HPM_P1;HPM_P2
2022/06/02 00:00:20;;;;;;;0.10;0.10;;;8.40;99.90;;;;;;5091094;28;20615;-83
2022/06/02 00:03:03;;;;;;;0.10;0.10;;;8.40;99.90;;;;;;5106980;28;20038;-83
2022/06/02 00:06:07;;;;;;;0.10;0.10;;;8.40;99.90;;;;;;5091093;28;20044;-83
2022/06/02 00:09:05;;;;;;;0.10;0.10;;;8.40;99.90;;;;;;5094758;28;20132;-83
2022/06/02 00:12:00;;;;;;;0.10;0.10;;;8.40;99.90;;;;;;5083041;28;20040;-80
2022/06/02 00:14:54;;;;;;;0.20;0.20;;;8.40;99.90;;;;;;5090440;28;20405;-80
2022/06/02 00:17:38;;;;;;;0.10;0.10;;;8.40;99.90;;;;;;5073777;28;20497;-80
2022/06/02 00:20:37;;;;;;;0.25;0.25;;;8.40;99.90;;;;;;5073496;28;20090;-84
2022/06/02 00:23:07;;;;;;;0.20;0.20;;;8.40;99.90;;;;;;5062147;28;20044;-80
2022/06/02 00:25:58;;;;;;;0.40;0.25;;;8.40;99.90;;;;;;5090326;28;20047;-80
2022/06/02 00:28:42;;;;;;;0.10;0.10;;;8.40;99.90;;;;;;5073567;28;20527;-83
2022/06/02 00:31:24;;;;;;;0.05;0.05;;;8.50;99.90;;;;;;5073362;28;20047;-80
2022/06/02 00:34:04;;;;;;;0.30;0.30;;;8.40;99.90;;;;;;5072417;28;20715;-80
2022/06/02 00:36:43;;;;;;;0.10;0.10;;;8.40;99.90;;;;;;5084020;28;20119;-80
2022/06/02 00:39:10;;;;;;;0.25;0.25;;;8.40;99.90;;;;;;5090046;28;20037;-83
2022/06/02 00:41:58;;;;;;;0.10;0.10;;;8.60;99.90;;;;;;5066193;28;20386;-83
2022/06/02 00:44:47;;;;;;;0.90;0.20;;;8.30;99.90;;;;;;5090030;28;20144;-83
2022/06/02 00:47:51;;;;;;;0.10;0.10;;;8.20;99.90;;;;;;5073617;28;20036;-84
2022/06/02 00:50:51;;;;;;;0.25;0.20;;;8.10;99.90;;;;;;5074381;28;20040;-83
2022/06/02 00:53:26;;;;;;;0.22;0.22;;;8.20;99.90;;;;;;5089813;28;20036;-80
2022/06/02 00:59:29;;;;;;;0.20;0.20;;;8.10;99.90;;;;;;5106249;28;20125;-84
2022/06/02 01:01:56;;;;;;;0.10;0.10;;;8.00;99.90;;;;;;5007408;28;20062;-80
2022/06/02 01:04:22;;;;;;;0.10;0.10;;;8.00;99.90;;;;;;5057097;28;20397;-81
2022/06/02 01:07:14;;;;;;;0.25;0.25;;;8.10;99.90;;;;;;5056990;28;20037;-80
2022/06/02 01:10:16;;;;;;;0.15;0.15;;;7.90;99.90;;;;;;5089636;28;20540;-80
2022/06/02 01:13:04;;;;;;;0.65;0.45;;;7.90;99.90;;;;;;5090053;28;20040;-84
2022/06/02 01:16:00;;;;;;;0.10;0.10;;;7.80;99.90;;;;;;5089622;28;20040;-84
2022/06/02 01:18:55;;;;;;;0.10;0.10;;;7.80;99.90;;;;;;5073360;28;20044;-80
2022/06/02 01:21:39;;;;;;;0.10;0.10;;;7.70;99.90;;;;;;5069208;28;20051;-80
2022/06/02 01:24:44;;;;;;;0.10;0.10;;;7.70;99.90;;;;;;5052595;28;20568;-84
2022/06/02 01:27:20;;;;;;;0.20;0.20;;;7.70;99.90;;;;;;5069561;28;20036;-83
2022/06/02 01:29:56;;;;;;;0.20;0.20;;;7.70;99.90;;;;;;5058522;28;20424;-83
2022/06/02 01:32:53;;;;;;;0.10;0.10;;;7.70;99.90;;;;;;5089315;28;20048;-84
2022/06/02 01:35:51;;;;;;;0.20;0.20;;;7.70;99.90;;;;;;5068377;28;20048;-84
2022/06/02 01:38:32;;;;;;;0.20;0.20;;;7.70;99.90;;;;;;5072390;28;20059;-80
2022/06/02 01:41:11;;;;;;;0.35;0.35;;;7.70;99.90;;;;;;5076379;28;20040;-80
2022/06/02 01:44:02;;;;;;;0.10;0.10;;;7.70;99.90;;;;;;5089175;28;20052;-80
2022/06/02 01:46:59;;;;;;;0.10;0.10;;;7.70;99.90;;;;;;5077733;28;20048;-84
2022/06/02 01:49:36;;;;;;;0.15;0.10;;;7.70;99.90;;;;;;5079559;28;20036;-80
2022/06/02 01:52:14;;;;;;;0.15;0.15;;;7.70;99.90;;;;;;5096516;28;20051;-80
2022/06/02 01:55:04;;;;;;;0.20;0.20;;;7.70;99.90;;;;;;5093220;28;20116;-80
2022/06/02 01:57:52;;;;;;;0.10;0.10;;;7.70;99.90;;;;;;5095875;28;20048;-84
2022/06/02 02:00:22;;;;;;;0.10;0.10;;;7.70;99.90;;;;;;5079063;28;20036;-80
2022/06/02 02:03:08;;;;;;;0.15;0.15;;;7.70;99.90;;;;;;5079233;28;20090;-80
2022/06/02 02:05:51;;;;;;;0.35;0.35;;;7.70;99.90;;;;;;5079056;28;20489;-84
2022/06/02 02:08:54;;;;;;;0.20;0.20;;;7.70;99.90;;;;;;5095476;28;20125;-84
2022/06/02 02:11:45;;;;;;;0.10;0.10;;;7.70;99.90;;;;;;5087302;28;20041;-80
2022/06/02 02:14:21;;;;;;;0.10;0.10;;;7.60;99.90;;;;;;5095555;28;20048;-84
2022/06/02 02:17:29;;;;;;;0.20;0.20;;;7.60;99.90;;;;;;5112434;28;20106;-84
2022/06/02 02:20:27;;;;;;;0.22;0.22;;;7.60;99.90;;;;;;5090364;28;20098;-80
2022/06/02 02:23:11;;;;;;;0.10;0.10;;;7.60;99.90;;;;;;5075433;28;20044;-80
2022/06/02 02:25:52;;;;;;;0.13;0.13;;;7.60;99.90;;;;;;5092404;28;20083;-80
2022/06/02 02:28:43;;;;;;;0.10;0.10;;;7.60;99.90;;;;;;5059227;28;20083;-84
2022/06/02 02:31:17;;;;;;;0.10;0.10;;;7.60;99.90;;;;;;5071279;28;20044;-84
2022/06/02 02:33:46;;;;;;;0.10;0.10;;;7.50;99.90;;;;;;5079080;28;20404;-80
2022/06/02 02:36:50;;;;;;;0.25;0.25;;;7.50;99.90;;;;;;5095143;28;20048;-83
2022/06/02 02:39:31;;;;;;;0.10;0.10;;;7.40;99.90;;;;;;5078432;28;20049;-80
2022/06/02 02:42:20;;;;;;;0.60;0.50;;;7.40;99.90;;;;;;5091752;28;20040;-80
2022/06/02 02:45:01;;;;;;;0.30;0.30;;;7.30;99.90;;;;;;5092285;28;20103;-84
2022/06/02 02:47:35;;;;;;;0.30;0.30;;;7.30;99.90;;;;;;5075283;28;20130;-80
2022/06/02 02:50:10;;;;;;;0.10;0.10;;;7.30;99.90;;;;;;5075304;28;20036;-83
2022/06/02 02:52:37;;;;;;;0.10;0.10;;;7.30;99.90;;;;;;5092024;28;20136;-80
2022/06/02 02:55:15;;;;;;;0.17;0.17;;;7.30;99.90;;;;;;5091281;28;20128;-80
2022/06/02 02:57:57;;;;;;;0.20;0.20;;;7.30;99.90;;;;;;5071879;28;20116;-80
2022/06/02 03:00:33;;;;;;;0.13;0.13;;;7.20;99.90;;;;;;5088178;28;20041;-80
2022/06/02 03:03:09;;;;;;;0.10;0.10;;;7.20;99.90;;;;;;5087734;28;20051;-80
2022/06/02 03:05:48;;;;;;;0.38;0.20;;;7.20;99.90;;;;;;5088231;28;20049;-80
2022/06/02 03:08:34;;;;;;;0.10;0.10;;;7.20;99.90;;;;;;5088360;28;20120;-80
2022/06/02 03:11:14;;;;;;;;;;;7.20;99.90;;;;;;5088788;28;20036;-84
2022/06/02 03:13:53;;;;;;;0.30;0.30;;;7.20;99.90;;;;;;5071536;28;19924;-80
2022/06/02 03:16:22;;;;;;;0.10;0.10;;;7.20;99.90;;;;;;5087650;28;20041;-83
2022/06/02 03:18:49;;;;;;;0.10;0.10;;;7.30;99.90;;;;;;5088434;28;20045;-80
2022/06/02 03:21:36;;;;;;;0.10;0.10;;;7.20;99.90;;;;;;5087802;28;20045;-83
2022/06/02 03:24:18;;;;;;;0.10;0.10;;;7.30;99.90;;;;;;5071719;28;20505;-83
2022/06/02 03:26:57;;;;;;;0.32;0.30;;;7.30;99.90;;;;;;5071437;28;20037;-83
2022/06/02 03:29:36;;;;;;;0.10;0.10;;;7.30;99.90;;;;;;5087786;28;20037;-83
2022/06/02 03:32:26;;;;;;;0.10;0.10;;;7.50;99.90;;;;;;5087982;28;20056;-83
2022/06/02 03:35:04;;;;;;;0.20;0.20;;;7.50;99.90;;;;;;5050721;28;20084;-80
2022/06/02 03:37:47;;;;;;;0.20;0.20;;;7.50;99.90;;;;;;5051351;28;20874;-80
2022/06/02 03:40:16;;;;;;;0.10;0.10;;;7.50;99.90;;;;;;5051177;28;20044;-80
2022/06/02 03:42:56;;;;;;;0.10;0.10;;;7.60;99.90;;;;;;5051101;28;20072;-83
2022/06/02 03:45:37;;;;;;;0.35;0.35;;;7.60;99.90;;;;;;5051022;28;20052;-80
2022/06/02 03:48:13;;;;;;;0.35;0.35;;;7.60;99.90;;;;;;5051301;28;20040;-83
2022/06/02 03:50:43;;;;;;;0.10;0.10;;;7.70;99.90;;;;;;5067717;28;20793;-84
2022/06/02 03:53:27;;;;;;;0.28;0.20;;;7.70;99.90;;;;;;5079689;28;20127;-80
2022/06/02 03:56:06;;;;;;;0.57;0.45;;;7.70;99.90;;;;;;5087893;28;20056;-80
2022/06/02 03:59:04;;;;;;;0.10;0.10;;;7.70;99.90;;;;;;5087335;28;20041;-84
2022/06/02 04:01:37;;;;;;;0.38;0.38;;;7.80;99.90;;;;;;5070421;28;20053;-84
2022/06/02 04:04:12;;;;;;;0.20;0.20;;;7.70;99.90;;;;;;5070745;28;20036;-83
2022/06/02 04:06:48;;;;;;;0.38;0.20;;;7.70;99.90;;;;;;5070748;28;20033;-84
2022/06/02 04:09:42;;;;;;;0.30;0.30;;;7.70;99.90;;;;;;5070240;28;20077;-79
2022/06/02 04:15:37;;;;;;;0.10;0.10;;;7.70;99.90;;;;;;5087219;28;20053;-81
2022/06/02 04:18:19;;;;;;;0.20;0.20;;;7.70;99.90;;;;;;5087423;28;20036;-80
2022/06/02 04:21:11;;;;;;;0.85;0.22;;;8.00;99.90;;;;;;5087041;28;20076;-79
2022/06/02 04:24:20;;;;;;;0.10;0.10;;;7.80;99.90;;;;;;5075959;28;20048;-84
2022/06/02 04:27:19;;;;;;;0.30;0.30;;;7.80;99.90;;;;;;5086655;28;20049;-79
2022/06/02 04:29:55;;;;;;;0.40;0.30;;;7.80;99.90;;;;;;5086901;28;20040;-83
2022/06/02 04:32:59;;;;;;;0.10;0.10;;;7.90;99.90;;;;;;5086324;28;20113;-83
2022/06/02 04:35:36;;;;;;;0.32;0.30;;;7.80;99.90;;;;;;5017286;28;20047;-80
2022/06/02 04:38:12;;;;;;;0.35;0.35;;;7.90;99.90;;;;;;5087089;28;20048;-84
2022/06/02 04:40:54;;;;;;;;;;;7.90;99.90;;;;;;5087254;28;20051;-83
2022/06/02 04:43:39;;;;;;;0.10;0.10;;;7.90;99.90;;;;;;5085962;28;19974;-80
2022/06/02 04:46:20;;;;;;;0.15;0.15;;;8.00;99.90;;;;;;5069984;28;20041;-79
2022/06/02 04:49:08;;;;;;;0.20;0.20;;;8.10;99.90;;;;;;5070059;28;20545;-79
2022/06/02 04:51:54;;;;;;;0.20;0.20;;;8.20;99.90;;;;;;5069857;28;20048;-80
2022/06/02 04:54:48;;;;;;;1.02;0.40;;;8.20;99.90;;;;;;5069969;28;20047;-84
2022/06/02 04:57:26;;;;;;;0.20;0.20;;;8.30;99.90;;;;;;5086603;28;20044;-83
2022/06/02 05:00:04;;;;;;;0.28;0.20;;;8.30;99.90;;;;;;5069685;28;20406;-80
2022/06/02 05:03:09;;;;;;;0.10;0.10;;;8.40;99.90;;;;;;5069417;28;20136;-80
2022/06/02 05:05:39;;;;;;;0.10;0.10;;;8.50;99.90;;;;;;5086182;28;20033;-84
2022/06/02 05:08:25;;;;;;;0.10;0.10;;;8.50;99.90;;;;;;5069955;28;20110;-83
2022/06/02 05:11:16;;;;;;;0.13;0.13;;;8.60;99.90;;;;;;5075512;28;20187;-83
2022/06/02 05:13:52;;;;;;;0.20;0.20;;;8.70;99.90;;;;;;5085605;28;20059;-83
2022/06/02 05:16:38;;;;;;;0.20;0.20;;;8.70;99.90;;;;;;5069457;28;20048;-80
2022/06/02 05:19:27;;;;;;;0.10;0.10;;;8.80;99.90;;;;;;5086325;28;20048;-83
2022/06/02 05:22:21;;;;;;;0.10;0.10;;;8.80;99.90;;;;;;5068992;28;20045;-80
2022/06/02 05:24:57;;;;;;;0.13;0.13;;;8.90;99.90;;;;;;5049588;28;20403;-80
2022/06/02 05:27:42;;;;;;;0.28;0.28;;;8.90;99.90;;;;;;5049343;28;20049;-83
2022/06/02 05:30:15;;;;;;;0.13;0.13;;;9.00;99.90;;;;;;5049278;28;20041;-80
2022/06/02 05:32:51;;;;;;;0.10;0.10;;;9.10;99.90;;;;;;5059130;28;20067;-80
2022/06/02 05:36:05;;;;;;;0.10;0.10;;;9.20;99.90;;;;;;5085966;28;20468;-80
2022/06/02 05:38:48;;;;;;;0.10;0.10;;;9.30;99.90;;;;;;5046963;28;20044;-83
2022/06/02 05:41:34;;;;;;;0.20;0.20;;;9.30;99.90;;;;;;5071773;28;20494;-79
2022/06/02 05:44:10;;;;;;;0.20;0.20;;;9.40;99.90;;;;;;5089319;28;20792;-80
2022/06/02 05:46:55;;;;;;;0.05;0.05;;;9.50;99.90;;;;;;5091575;28;20478;-84
2022/06/02 05:49:42;;;;;;;0.10;0.10;;;9.60;99.90;;;;;;5089456;28;20109;-84
2022/06/02 05:52:23;;;;;;;0.17;0.17;;;9.70;99.90;;;;;;5089518;28;20040;-80
2022/06/02 05:55:18;;;;;;;0.30;0.30;;;9.80;99.90;;;;;;5089040;28;20040;-83
2022/06/02 05:57:45;;;;;;;0.10;0.10;;;9.80;99.90;;;;;;5051990;28;20145;-79
2022/06/02 06:00:22;;;;;;;0.35;0.30;;;10.00;99.90;;;;;;5089323;28;20131;-83
2022/06/02 06:03:12;;;;;;;0.13;0.13;;;10.00;99.90;;;;;;5080541;28;20413;-83
2022/06/02 06:05:55;;;;;;;0.10;0.10;;;10.10;99.90;;;;;;5071358;28;20486;-80
2022/06/02 06:08:40;;;;;;;0.28;0.15;;;10.20;99.90;;;;;;5084382;28;20083;-83
2022/06/02 06:11:18;;;;;;;0.10;0.10;;;10.30;99.90;;;;;;5086577;28;20036;-80
2022/06/02 06:13:51;;;;;;;0.10;0.10;;;10.40;99.90;;;;;;5085371;28;20405;-80
2022/06/02 06:16:25;;;;;;;0.10;0.10;;;10.60;99.90;;;;;;5068895;28;20128;-83
2022/06/02 06:19:14;;;;;;;0.10;0.10;;;10.70;99.90;;;;;;5052256;28;20115;-80
2022/06/02 06:22:10;;;;;;;0.10;0.10;;;10.80;99.90;;;;;;5067008;28;20037;-80
2022/06/02 06:24:54;;;;;;;0.20;0.20;;;10.90;99.90;;;;;;5072268;28;20094;-80
2022/06/02 06:27:39;;;;;;;0.32;0.20;;;11.00;99.90;;;;;;5089117;28;20110;-82
2022/06/02 06:30:21;;;;;;;0.10;0.10;;;11.20;99.90;;;;;;5088569;28;20040;-80
2022/06/02 06:33:29;;;;;;;0.10;0.10;;;11.30;99.90;;;;;;5093020;28;20551;-83
2022/06/02 06:36:07;;;;;;;0.10;0.10;;;11.30;99.90;;;;;;5092730;28;20044;-80
2022/06/02 06:38:50;;;;;;;0.10;0.10;;;11.50;99.90;;;;;;5092657;28;20044;-83
2022/06/02 06:41:32;;;;;;;0.20;0.20;;;11.60;99.90;;;;;;5092330;28;20071;-79
2022/06/02 06:44:13;;;;;;;0.22;0.15;;;11.70;99.90;;;;;;5071893;28;20040;-84
2022/06/02 06:47:06;;;;;;;0.20;0.20;;;11.70;99.90;;;;;;5077283;28;20116;-81
2022/06/02 06:49:51;;;;;;;0.00;0.00;;;11.80;99.90;;;;;;5083609;28;20497;-83
2022/06/02 06:52:23;;;;;;;0.10;0.10;;;11.90;99.90;;;;;;5068882;28;20051;-84
2022/06/02 06:54:57;;;;;;;0.10;0.10;;;12.00;99.90;;;;;;5061080;28;20044;-82
2022/06/02 06:58:05;;;;;;;0.10;0.10;;;12.10;99.90;;;;;;5092213;28;20032;-83
2022/06/02 07:00:56;;;;;;;0.10;0.10;;;12.20;99.90;;;;;;5085612;28;20044;-81
2022/06/02 07:03:49;;;;;;;0.20;0.20;;;12.30;99.90;;;;;;5091539;28;20044;-84
2022/06/02 07:06:23;;;;;;;0.10;0.10;;;12.40;99.90;;;;;;5079726;28;20544;-83
2022/06/02 07:09:00;;;;;;;0.10;0.10;;;12.40;99.90;;;;;;5084111;28;20039;-81
2022/06/02 07:14:44;;;;;;;0.08;0.08;;;12.50;99.90;;;;;;5080976;28;20044;-81
2022/06/02 07:17:23;;;;;;;0.10;0.10;;;12.60;99.90;;;;;;5091361;28;20058;-83
2022/06/02 07:20:01;;;;;;;0.03;0.03;;;12.70;99.90;;;;;;5055024;28;20037;-82
2022/06/02 07:22:48;;;;;;;0.10;0.10;;;12.80;99.90;;;;;;5055297;28;20041;-81
2022/06/02 07:25:30;;;;;;;0.73;0.10;;;12.80;99.90;;;;;;5083933;28;20111;-81
2022/06/02 07:28:05;;;;;;;0.08;0.08;;;13.10;99.90;;;;;;5074576;28;20118;-82
2022/06/02 07:30:37;;;;;;;;;;;13.30;99.90;;;;;;5075469;28;20032;-82
2022/06/02 07:33:16;;;;;;;0.00;0.00;;;13.40;99.90;;;;;;5092179;28;19917;-82
2022/06/02 07:36:01;;;;;;;0.10;0.10;;;13.50;99.90;;;;;;5089353;28;20053;-83
2022/06/02 07:38:43;;;;;;;0.10;0.10;;;13.50;99.90;;;;;;5079578;28;20040;-83
2022/06/02 07:41:46;;;;;;;0.20;0.15;;;13.40;99.90;;;;;;5068757;28;20036;-81
2022/06/02 07:44:37;;;;;;;0.10;0.10;;;13.40;99.90;;;;;;5097598;28;20508;-85
2022/06/02 07:47:34;;;;;;;0.10;0.10;;;13.50;99.90;;;;;;5084845;28;20471;-83
2022/06/02 07:50:16;;;;;;;0.10;0.10;;;13.70;99.90;;;;;;5086530;28;20077;-82
2022/06/02 07:52:56;;;;;;;0.00;0.00;;;13.80;99.90;;;;;;5070709;28;20110;-80
2022/06/02 07:55:29;;;;;;;0.55;0.10;;;13.80;99.90;;;;;;5089282;28;20056;-80
2022/06/02 07:58:07;;;;;;;0.13;0.10;;;14.00;99.90;;;;;;5082063;28;20516;-80
2022/06/02 08:00:57;;;;;;;0.00;0.00;;;14.00;99.90;;;;;;5090272;28;20050;-83
2022/06/02 08:03:46;;;;;;;0.10;0.10;;;14.10;99.90;;;;;;5032899;28;20060;-80
2022/06/02 08:06:51;;;;;;;0.10;0.10;;;14.40;99.90;;;;;;5065232;28;20053;-83
2022/06/02 08:10:14;;;;;;;0.00;0.00;;;14.50;99.90;;;;;;5016101;28;20066;-81
2022/06/02 08:13:10;;;;;;;0.00;0.00;;;14.30;99.90;;;;;;5013288;28;20077;-82
2022/06/02 08:15:39;;;;;;;;;;;14.30;99.90;;;;;;5029731;28;20575;-82
2022/06/02 08:18:43;;;;;;;0.10;0.10;;;14.30;99.90;;;;;;5065759;28;19916;-80
2022/06/02 08:21:38;;;;;;;0.22;0.10;;;14.50;99.90;;;;;;5085583;28;20032;-80
2022/06/02 08:24:52;;;;;;;0.30;0.15;;;14.60;99.90;;;;;;5075618;28;20083;-79
2022/06/02 08:27:55;;;;;;;0.20;0.17;;;14.50;99.90;;;;;;5012740;28;20419;-80
2022/06/02 08:30:37;;;;;;;0.10;0.10;;;14.40;99.90;;;;;;5073568;28;20037;-81
2022/06/02 08:33:23;;;;;;;0.25;0.25;;;14.50;99.90;;;;;;5100670;28;20047;-81
2022/06/02 08:36:03;;;;;;;0.00;0.00;;;14.60;99.90;;;;;;5085329;28;20036;-83
2022/06/02 08:38:55;;;;;;;0.40;0.25;;;14.50;99.90;;;;;;5059745;28;20045;-79
2022/06/02 08:41:40;;;;;;;0.22;0.22;;;14.40;99.90;;;;;;5081996;28;20044;-80
2022/06/02 08:44:19;;;;;;;0.10;0.10;;;14.30;99.90;;;;;;5060476;28;20036;-79
2022/06/02 08:46:49;;;;;;;0.20;0.10;;;14.40;99.90;;;;;;5100941;28;20052;-82
2022/06/02 08:49:53;;;;;;;0.10;0.10;;;14.60;99.90;;;;;;5068205;28;20124;-83
2022/06/02 08:52:55;;;;;;;0.32;0.17;;;14.80;99.90;;;;;;5080162;28;20037;-82
2022/06/02 08:55:36;;;;;;;0.20;0.20;;;15.00;99.90;;;;;;5069497;28;20044;-82
2022/06/02 08:58:34;;;;;;;0.10;0.10;;;15.20;99.90;;;;;;5052773;28;20057;-79
2022/06/02 09:01:45;;;;;;;0.13;0.13;;;15.10;99.90;;;;;;5069070;28;20044;-83
2022/06/02 09:04:36;;;;;;;0.10;0.10;;;15.20;99.90;;;;;;5055277;28;20045;-80
2022/06/02 09:07:12;;;;;;;0.00;0.00;;;15.10;99.90;;;;;;5087843;28;20608;-83
2022/06/02 09:10:04;;;;;;;0.10;0.10;;;15.00;99.90;;;;;;5073165;28;20032;-80
2022/06/02 09:12:39;;;;;;;0.20;0.20;;;15.00;99.90;;;;;;5073119;28;20074;-81
2022/06/02 09:15:18;;;;;;;0.15;0.15;;;15.00;99.90;;;;;;5071923;28;20442;-80
2022/06/02 09:18:16;;;;;;;0.17;0.17;;;15.10;99.90;;;;;;5072736;28;20037;-82
2022/06/02 09:21:05;;;;;;;0.10;0.10;;;15.40;99.90;;;;;;5066937;28;20066;-82
2022/06/02 09:23:58;;;;;;;0.10;0.10;;;15.50;99.90;;;;;;5089271;28;20078;-83
2022/06/02 09:26:52;;;;;;;0.17;0.10;;;15.50;99.90;;;;;;5045103;28;20044;-80
2022/06/02 09:29:41;;;;;;;0.40;0.28;;;15.50;99.90;;;;;;5065694;28;20053;-82
2022/06/02 09:32:35;;;;;;;0.10;0.10;;;15.40;99.90;;;;;;5100246;28;20416;-80
2022/06/02 09:35:13;;;;;;;0.10;0.10;;;15.50;99.90;;;;;;5057185;28;20041;-82
2022/06/02 09:38:10;;;;;;;0.10;0.10;;;15.70;99.90;;;;;;5076150;28;20071;-80
2022/06/02 09:41:20;;;;;;;0.10;0.10;;;15.60;99.90;;;;;;5088878;28;20063;-80
2022/06/02 09:43:53;;;;;;;0.22;0.10;;;15.50;99.90;;;;;;5089521;28;20059;-82
2022/06/02 09:46:29;;;;;;;0.22;0.22;;;15.60;99.90;;;;;;5066789;28;20493;-82
2022/06/02 09:49:33;;;;;;;0.10;0.10;;;15.50;99.90;;;;;;5072103;28;20040;-83
2022/06/02 09:52:15;;;;;;;0.00;0.00;;;15.70;99.90;;;;;;5068298;28;20033;-80
2022/06/02 09:55:11;;;;;;;0.10;0.10;;;16.10;99.90;;;;;;5120468;28;20107;-83
2022/06/02 09:57:55;;;;;;;0.17;0.17;;;16.20;99.90;;;;;;5022814;28;20602;-79
2022/06/02 10:00:55;;;;;;;0.15;0.10;;;16.20;99.90;;;;;;5074808;28;20040;-80
2022/06/02 10:03:50;;;;;;;0.20;0.15;;;16.00;99.90;;;;;;5082415;28;20036;-79
2022/06/02 10:06:41;;;;;;;0.20;0.15;;;16.20;99.90;;;;;;5101865;28;20548;-82
2022/06/02 10:09:17;;;;;;;0.25;0.20;;;16.50;99.90;;;;;;5067633;28;20033;-80
2022/06/02 10:11:51;;;;;;;;;;;16.60;99.90;;;;;;5108747;28;20726;-81
2022/06/02 10:14:29;;;;;;;0.10;0.10;;;16.40;99.90;;;;;;5092468;28;19917;-81
2022/06/02 10:17:19;;;;;;;0.10;0.10;;;16.40;99.90;;;;;;5076433;28;20050;-82
2022/06/02 10:20:16;;;;;;;0.20;0.20;;;16.50;99.90;;;;;;5076129;28;20064;-81
2022/06/02 10:22:49;;;;;;;0.15;0.10;;;16.80;99.90;;;;;;5092480;28;20051;-80
2022/06/02 10:25:47;;;;;;;0.15;0.15;;;17.00;99.90;;;;;;5075543;28;20119;-81
2022/06/02 10:28:41;;;;;;;1.33;0.47;;;17.00;99.90;;;;;;5072170;28;20041;-82
2022/06/02 10:31:29;;;;;;;0.10;0.10;;;16.90;99.90;;;;;;5092253;28;20048;-80
2022/06/02 10:34:28;;;;;;;0.00;0.00;;;16.50;99.90;;;;;;5066847;28;20041;-80
2022/06/02 10:37:11;;;;;;;0.10;0.10;;;16.40;99.90;;;;;;5069188;28;20041;-82
2022/06/02 10:40:13;;;;;;;0.32;0.20;;;16.70;99.90;;;;;;5075199;28;20041;-80
2022/06/02 10:43:04;;;;;;;0.15;0.15;;;16.90;99.90;;;;;;5085259;28;20501;-83
2022/06/02 10:45:52;;;;;;;0.35;0.20;;;17.20;99.90;;;;;;5083759;28;20046;-83
2022/06/02 10:48:33;;;;;;;0.08;0.08;;;17.40;99.90;;;;;;5092201;28;20045;-80
2022/06/02 10:51:33;;;;;;;0.10;0.10;;;17.80;99.90;;;;;;5091607;28;20059;-80
2022/06/02 10:54:33;;;;;;;0.20;0.20;;;18.00;99.90;;;;;;5068662;28;20033;-80
2022/06/02 10:57:31;;;;;;;0.10;0.10;;;18.20;99.90;;;;;;5102549;28;20050;-80
2022/06/02 11:00:13;;;;;;;0.38;0.20;;;18.30;99.90;;;;;;5085780;28;20072;-84
2022/06/02 11:02:43;;;;;;;0.10;0.10;;;18.40;99.90;;;;;;5091846;28;20044;-87
2022/06/02 11:05:41;;;;;;;0.17;0.17;;;18.30;99.90;;;;;;5091872;28;20044;-80
2022/06/02 11:08:17;;;;;;;0.00;0.00;;;17.60;99.90;;;;;;5077307;28;20036;-80
2022/06/02 11:11:01;;;;;;;0.25;0.20;;;17.60;99.90;;;;;;5076041;28;20045;-88
2022/06/02 11:13:53;;;;;;;0.28;0.17;;;17.50;99.90;;;;;;5075397;28;20505;-80
2022/06/02 11:16:41;;;;;;;0.10;0.10;;;17.20;99.90;;;;;;5075333;28;20512;-80
2022/06/02 11:19:30;;;;;;;0.20;0.20;;;17.40;99.90;;;;;;5107351;28;20040;-87
2022/06/02 11:22:16;;;;;;;0.10;0.10;;;17.60;99.90;;;;;;5091857;28;20037;-88
2022/06/02 11:25:12;;;;;;;0.20;0.20;;;17.90;99.90;;;;;;5092343;28;20108;-80
2022/06/02 11:28:00;;;;;;;0.00;0.00;;;18.10;99.90;;;;;;5079174;28;20039;-88
2022/06/02 11:30:58;;;;;;;0.20;0.20;;;17.80;99.90;;;;;;5092053;28;20130;-88
2022/06/02 11:34:01;;;;;;;0.08;0.08;;;17.50;99.90;;;;;;5075347;28;20051;-88
2022/06/02 11:36:58;;;;;;;0.10;0.10;;;17.70;99.90;;;;;;5075389;28;20036;-87
2022/06/02 11:39:46;;;;;;;0.13;0.13;;;17.90;99.90;;;;;;5075622;28;20182;-89
2022/06/02 11:42:31;;;;;;;0.15;0.15;;;18.10;99.90;;;;;;5073950;28;20484;-87
2022/06/02 11:45:26;;;;;;;0.82;0.43;;;18.40;99.90;;;;;;5074738;28;20044;-80
2022/06/02 11:48:21;;;;;;;0.20;0.10;;;18.80;99.90;;;;;;5074889;28;20119;-80
2022/06/02 11:50:53;;;;;;;0.20;0.20;;;19.00;99.90;;;;;;5090814;28;20051;-88
2022/06/02 11:53:28;;;;;;;0.30;0.20;;;19.00;99.90;;;;;;5091204;28;20044;-80
2022/06/02 11:55:58;;;;;;;0.25;0.25;;;18.80;99.90;;;;;;5091629;28;20037;-80
2022/06/02 11:58:58;;;;;;;0.10;0.10;;;18.50;99.90;;;;;;5107951;28;20044;-80
2022/06/02 12:01:50;;;;;;;0.10;0.10;;;18.20;99.90;;;;;;5090854;28;20151;-88
2022/06/02 12:04:29;;;;;;;0.20;0.20;;;18.00;99.90;;;;;;5070861;28;20044;-80
2022/06/02 12:07:24;;;;;;;0.10;0.10;;;17.90;99.90;;;;;;5074771;28;20040;-89
2022/06/02 12:10:28;;;;;;;0.10;0.10;;;18.20;99.90;;;;;;5075162;28;20045;-89
2022/06/02 12:13:16;;;;;;;0.20;0.20;;;18.50;99.90;;;;;;5078079;28;20044;-88
2022/06/02 12:16:13;;;;;;;0.57;0.35;;;18.80;99.90;;;;;;5089030;28;20041;-88
2022/06/02 12:19:05;;;;;;;0.22;0.10;;;18.80;99.90;;;;;;5091052;28;20056;-81
2022/06/02 12:21:54;;;;;;;0.20;0.20;;;18.80;99.90;;;;;;5073099;28;20405;-80
2022/06/02 12:24:42;;;;;;;0.10;0.10;;;18.80;99.90;;;;;;5090610;28;20040;-80
2022/06/02 12:27:28;;;;;;;0.10;0.10;;;18.60;99.90;;;;;;5074391;28;20063;-88
2022/06/02 12:30:01;;;;;;;0.20;0.20;;;18.20;99.90;;;;;;5054185;28;20500;-80
2022/06/02 12:32:34;;;;;;;0.50;0.40;;;18.00;99.90;;;;;;5083655;28;20044;-80
2022/06/02 12:35:29;;;;;;;0.35;0.28;;;18.00;99.90;;;;;;5090472;28;20032;-79
2022/06/02 12:38:05;;;;;;;0.10;0.10;;;18.10;99.90;;;;;;5067638;28;20048;-88
2022/06/02 12:40:58;;;;;;;0.20;0.20;;;18.30;99.90;;;;;;5084336;28;20067;-89
2022/06/02 12:43:34;;;;;;;0.15;0.15;;;18.60;99.90;;;;;;5063654;28;20052;-79
2022/06/02 12:46:15;;;;;;;0.10;0.10;;;18.80;99.90;;;;;;5082607;28;20075;-88
2022/06/02 12:48:58;;;;;;;0.10;0.10;;;19.10;99.90;;;;;;5070392;28;20505;-89
2022/06/02 12:51:43;;;;;;;0.65;0.22;;;19.30;99.90;;;;;;5054302;28;20067;-80
2022/06/02 12:54:31;;;;;;;0.20;0.20;;;19.10;99.90;;;;;;5070752;28;20126;-88
2022/06/02 12:57:39;;;;;;;0.25;0.25;;;18.80;99.90;;;;;;5070912;28;20049;-80
2022/06/02 13:00:27;;;;;;;0.25;0.20;;;18.80;99.90;;;;;;5025532;28;20053;-80
2022/06/02 13:03:24;;;;;;;0.20;0.20;;;19.00;99.90;;;;;;5073992;28;20559;-80
2022/06/02 13:06:28;;;;;;;0.30;0.22;;;19.10;99.90;;;;;;5090530;28;20485;-87
2022/06/02 13:09:24;;;;;;;0.10;0.10;;;19.20;99.90;;;;;;5074695;28;20393;-80
2022/06/02 13:12:16;;;;;;;0.20;0.20;;;19.30;99.90;;;;;;5019112;28;20103;-80
2022/06/02 13:15:19;;;;;;;0.55;0.30;;;19.40;99.90;;;;;;5078679;28;20037;-80
2022/06/02 13:17:48;;;;;;;0.17;0.17;;;19.40;99.90;;;;;;5076202;28;20054;-89
2022/06/02 13:20:24;;;;;;;0.20;0.20;;;19.40;99.90;;;;;;5089780;28;20051;-87
2022/06/02 13:23:09;;;;;;;0.10;0.10;;;19.50;99.90;;;;;;5073179;28;20040;-80
2022/06/02 13:26:04;;;;;;;0.20;0.20;;;19.50;99.90;;;;;;5073374;28;20472;-80
2022/06/02 13:29:05;;;;;;;0.28;0.28;;;19.50;99.90;;;;;;5089245;28;20102;-80
2022/06/02 13:31:38;;;;;;;0.20;0.20;;;19.30;99.90;;;;;;5073912;28;20055;-88
2022/06/02 13:34:32;;;;;;;0.35;0.30;;;19.00;99.90;;;;;;5073280;28;20052;-88
2022/06/02 13:37:31;;;;;;;0.17;0.17;;;19.00;99.90;;;;;;5089193;28;20087;-80
2022/06/02 13:40:33;;;;;;;0.15;0.15;;;19.10;99.90;;;;;;5090003;28;20033;-87
2022/06/02 13:43:38;;;;;;;0.25;0.20;;;19.30;99.90;;;;;;5085467;28;20080;-88
2022/06/02 13:46:36;;;;;;;0.52;0.28;;;19.10;99.90;;;;;;5013583;28;20057;-87
2022/06/02 13:49:46;;;;;;;0.13;0.13;;;19.10;99.90;;;;;;5029178;28;20084;-87
2022/06/02 13:52:31;;;;;;;0.20;0.20;;;19.20;99.90;;;;;;5027967;28;20053;-87
2022/06/02 13:58:43;;;;;;;0.10;0.10;;;18.80;99.90;;;;;;5065701;28;20050;-79
2022/06/02 14:01:31;;;;;;;0.20;0.20;;;18.60;99.90;;;;;;5050185;28;20049;-87
2022/06/02 14:04:20;;;;;;;0.20;0.20;;;18.80;99.90;;;;;;5049957;28;20494;-86
2022/06/02 14:06:54;;;;;;;0.17;0.13;;;18.90;99.90;;;;;;5069010;28;20041;-86
2022/06/02 14:09:41;;;;;;;0.20;0.20;;;18.80;99.90;;;;;;5085982;28;20068;-87
2022/06/02 14:12:30;;;;;;;0.15;0.10;;;18.50;99.90;;;;;;5069786;28;20044;-80
2022/06/02 14:15:21;;;;;;;0.73;0.30;;;18.40;99.90;;;;;;5086054;28;20190;-79
2022/06/02 14:18:15;;;;;;;0.20;0.20;;;18.40;99.90;;;;;;5070053;28;20045;-87
2022/06/02 14:21:01;;;;;;;0.10;0.10;;;18.40;99.90;;;;;;5085883;28;20040;-79
2022/06/02 14:23:37;;;;;;;0.10;0.10;;;18.20;99.90;;;;;;5068793;28;20041;-87
2022/06/02 14:26:10;;;;;;;0.43;0.28;;;18.30;99.90;;;;;;5069629;28;20033;-79
2022/06/02 14:28:59;;;;;;;0.10;0.10;;;18.40;99.90;;;;;;5085639;28;20037;-80
2022/06/02 14:31:33;;;;;;;0.20;0.20;;;18.40;99.90;;;;;;5101881;28;20076;-79
2022/06/02 14:34:32;;;;;;;0.20;0.20;;;18.30;99.90;;;;;;5070220;28;20029;-79
2022/06/02 14:37:16;;;;;;;0.10;0.10;;;18.30;99.90;;;;;;5069870;28;20052;-88
2022/06/02 14:39:47;;;;;;;0.47;0.22;;;18.30;99.90;;;;;;5069530;28;20047;-88
2022/06/02 14:45:21;;;;;;;;;;;18.40;99.90;;;;;;5085753;28;20512;-80
2022/06/02 14:48:03;;;;;;;0.32;0.20;;;18.50;99.90;;;;;;5068488;28;20392;-79